sensor_id;sensor_type;location;lat;lon;timestamp;P1;durP1;ratioP1;P2;durP2;ratioP2
12625;SDS011;6378;42.684;23.372;2023-05-24T00:02:06;12.70;;;9.40;;
12625;SDS011;6378;42.684;23.372;2023-05-24T00:04:31;14.63;;;9.98;;
12625;SDS011;6378;42.684;23.372;2023-05-24T00:06:57;12.88;;;10.52;;
12625;SDS011;6378;42.684;23.372;2023-05-24T00:09:23;15.95;;;10.90;;
12625;SDS011;6378;42.684;23.372;2023-05-24T00:11:48;14.40;;;9.63;;
12625;SDS011;6378;42.684;23.372;2023-05-24T00:14:14;13.02;;;10.13;;
12625;SDS011;6378;42.684;23.372;2023-05-24T00:16:39;14.25;;;10.05;;
12625;SDS011;6378;42.684;23.372;2023-05-24T00:19:05;11.95;;;10.05;;
12625;SDS011;6378;42.684;23.372;2023-05-24T00:21:30;12.13;;;10.13;;
12625;SDS011;6378;42.684;23.372;2023-05-24T00:23:56;12.45;;;10.13;;
12625;SDS011;6378;42.684;23.372;2023-05-24T00:26:21;12.15;;;9.48;;
12625;SDS011;6378;42.684;23.372;2023-05-24T00:28:47;14.00;;;10.32;;
12625;SDS011;6378;42.684;23.372;2023-05-24T00:31:12;15.32;;;9.82;;
12625;SDS011;6378;42.684;23.372;2023-05-24T00:33:38;18.85;;;10.23;;
12625;SDS011;6378;42.684;23.372;2023-05-24T00:36:04;13.07;;;10.07;;
12625;SDS011;6378;42.684;23.372;2023-05-24T00:38:29;16.02;;;9.82;;
12625;SDS011;6378;42.684;23.372;2023-05-24T00:40:55;13.40;;;9.68;;
12625;SDS011;6378;42.684;23.372;2023-05-24T00:43:21;13.95;;;9.73;;
12625;SDS011;6378;42.684;23.372;2023-05-24T00:45:47;12.35;;;9.63;;
12625;SDS011;6378;42.684;23.372;2023-05-24T00:48:44;12.02;;;9.50;;
12625;SDS011;6378;42.684;23.372;2023-05-24T00:51:10;13.10;;;10.10;;
12625;SDS011;6378;42.684;23.372;2023-05-24T00:53:37;11.38;;;9.70;;
12625;SDS011;6378;42.684;23.372;2023-05-24T00:56:03;11.25;;;10.05;;
12625;SDS011;6378;42.684;23.372;2023-05-24T00:58:29;11.20;;;9.43;;
12625;SDS011;6378;42.684;23.372;2023-05-24T01:00:57;11.82;;;9.27;;
12625;SDS011;6378;42.684;23.372;2023-05-24T01:03:27;12.18;;;9.30;;
12625;SDS011;6378;42.684;23.372;2023-05-24T01:06:03;10.60;;;9.10;;
12625;SDS011;6378;42.684;23.372;2023-05-24T01:17:13;10.18;;;8.55;;
12625;SDS011;6378;42.684;23.372;2023-05-24T01:20:01;11.32;;;8.48;;
12625;SDS011;6378;42.684;23.372;2023-05-24T01:25:47;10.98;;;8.88;;
12625;SDS011;6378;42.684;23.372;2023-05-24T01:28:13;10.48;;;8.73;;
12625;SDS011;6378;42.684;23.372;2023-05-24T01:30:41;10.77;;;8.60;;
12625;SDS011;6378;42.684;23.372;2023-05-24T01:33:07;11.48;;;8.88;;
12625;SDS011;6378;42.684;23.372;2023-05-24T01:35:33;11.95;;;8.98;;
12625;SDS011;6378;42.684;23.372;2023-05-24T01:38:04;9.65;;;8.50;;
12625;SDS011;6378;42.684;23.372;2023-05-24T01:40:30;12.93;;;9.00;;
12625;SDS011;6378;42.684;23.372;2023-05-24T01:51:10;10.57;;;8.52;;
12625;SDS011;6378;42.684;23.372;2023-05-24T01:53:44;15.32;;;9.70;;
12625;SDS011;6378;42.684;23.372;2023-05-24T01:56:11;10.13;;;8.60;;
12625;SDS011;6378;42.684;23.372;2023-05-24T01:58:39;11.95;;;9.45;;
12625;SDS011;6378;42.684;23.372;2023-05-24T02:01:08;11.35;;;10.10;;
12625;SDS011;6378;42.684;23.372;2023-05-24T02:03:34;14.27;;;10.10;;
12625;SDS011;6378;42.684;23.372;2023-05-24T02:06:02;10.65;;;9.13;;
12625;SDS011;6378;42.684;23.372;2023-05-24T02:08:28;13.02;;;9.88;;
12625;SDS011;6378;42.684;23.372;2023-05-24T02:10:53;10.40;;;8.85;;
12625;SDS011;6378;42.684;23.372;2023-05-24T02:13:18;13.30;;;10.68;;
12625;SDS011;6378;42.684;23.372;2023-05-24T02:15:44;12.82;;;10.15;;
12625;SDS011;6378;42.684;23.372;2023-05-24T02:18:10;12.23;;;9.98;;
12625;SDS011;6378;42.684;23.372;2023-05-24T02:20:37;12.43;;;9.35;;
12625;SDS011;6378;42.684;23.372;2023-05-24T02:23:02;13.68;;;9.82;;
12625;SDS011;6378;42.684;23.372;2023-05-24T02:25:28;12.60;;;10.30;;
12625;SDS011;6378;42.684;23.372;2023-05-24T02:27:55;15.70;;;10.57;;
12625;SDS011;6378;42.684;23.372;2023-05-24T02:30:21;14.02;;;9.77;;
12625;SDS011;6378;42.684;23.372;2023-05-24T02:32:47;12.93;;;10.20;;
12625;SDS011;6378;42.684;23.372;2023-05-24T02:35:12;13.57;;;10.07;;
12625;SDS011;6378;42.684;23.372;2023-05-24T02:37:38;12.35;;;9.38;;
12625;SDS011;6378;42.684;23.372;2023-05-24T02:40:03;12.23;;;9.55;;
12625;SDS011;6378;42.684;23.372;2023-05-24T02:42:29;16.15;;;10.32;;
12625;SDS011;6378;42.684;23.372;2023-05-24T02:44:55;13.52;;;10.20;;
12625;SDS011;6378;42.684;23.372;2023-05-24T02:47:20;12.68;;;9.80;;
12625;SDS011;6378;42.684;23.372;2023-05-24T02:49:45;14.25;;;9.95;;
12625;SDS011;6378;42.684;23.372;2023-05-24T02:52:11;15.30;;;10.48;;
12625;SDS011;6378;42.684;23.372;2023-05-24T02:54:37;15.23;;;10.85;;
12625;SDS011;6378;42.684;23.372;2023-05-24T02:57:03;13.18;;;10.40;;
12625;SDS011;6378;42.684;23.372;2023-05-24T02:59:30;12.50;;;10.20;;
12625;SDS011;6378;42.684;23.372;2023-05-24T03:01:56;13.07;;;10.75;;
12625;SDS011;6378;42.684;23.372;2023-05-24T03:04:21;16.33;;;10.85;;
12625;SDS011;6378;42.684;23.372;2023-05-24T03:06:47;13.48;;;10.57;;
12625;SDS011;6378;42.684;23.372;2023-05-24T03:09:12;12.38;;;10.45;;
12625;SDS011;6378;42.684;23.372;2023-05-24T03:11:38;15.07;;;10.95;;
12625;SDS011;6378;42.684;23.372;2023-05-24T03:14:03;16.75;;;10.98;;
12625;SDS011;6378;42.684;23.372;2023-05-24T03:16:30;18.58;;;11.02;;
12625;SDS011;6378;42.684;23.372;2023-05-24T03:18:56;13.30;;;10.65;;
12625;SDS011;6378;42.684;23.372;2023-05-24T03:21:23;13.25;;;10.88;;
12625;SDS011;6378;42.684;23.372;2023-05-24T03:23:49;15.98;;;9.80;;
12625;SDS011;6378;42.684;23.372;2023-05-24T03:26:15;12.18;;;10.25;;
12625;SDS011;6378;42.684;23.372;2023-05-24T03:28:40;15.45;;;9.82;;
12625;SDS011;6378;42.684;23.372;2023-05-24T03:31:06;13.88;;;10.07;;
12625;SDS011;6378;42.684;23.372;2023-05-24T03:33:31;12.40;;;9.98;;
12625;SDS011;6378;42.684;23.372;2023-05-24T03:35:57;11.60;;;9.20;;
12625;SDS011;6378;42.684;23.372;2023-05-24T03:38:22;10.38;;;8.95;;
12625;SDS011;6378;42.684;23.372;2023-05-24T03:40:48;13.45;;;8.70;;
12625;SDS011;6378;42.684;23.372;2023-05-24T03:43:13;10.93;;;8.60;;
12625;SDS011;6378;42.684;23.372;2023-05-24T03:45:39;9.95;;;8.95;;
12625;SDS011;6378;42.684;23.372;2023-05-24T03:48:04;11.85;;;8.85;;
12625;SDS011;6378;42.684;23.372;2023-05-24T03:50:30;13.82;;;8.52;;
12625;SDS011;6378;42.684;23.372;2023-05-24T03:52:55;9.23;;;8.30;;
12625;SDS011;6378;42.684;23.372;2023-05-24T03:55:21;14.45;;;9.27;;
12625;SDS011;6378;42.684;23.372;2023-05-24T03:57:47;15.65;;;8.55;;
12625;SDS011;6378;42.684;23.372;2023-05-24T04:00:12;14.07;;;8.18;;
12625;SDS011;6378;42.684;23.372;2023-05-24T04:02:38;10.27;;;8.05;;
12625;SDS011;6378;42.684;23.372;2023-05-24T04:05:04;12.50;;;8.68;;
12625;SDS011;6378;42.684;23.372;2023-05-24T04:07:34;13.23;;;8.98;;
12625;SDS011;6378;42.684;23.372;2023-05-24T04:10:01;12.73;;;8.23;;
12625;SDS011;6378;42.684;23.372;2023-05-24T04:12:28;12.00;;;9.20;;
12625;SDS011;6378;42.684;23.372;2023-05-24T04:14:55;10.48;;;8.52;;
12625;SDS011;6378;42.684;23.372;2023-05-24T04:17:20;12.05;;;7.93;;
12625;SDS011;6378;42.684;23.372;2023-05-24T04:19:48;11.70;;;8.05;;
12625;SDS011;6378;42.684;23.372;2023-05-24T04:22:17;10.38;;;8.23;;
12625;SDS011;6378;42.684;23.372;2023-05-24T04:24:45;9.07;;;7.22;;
12625;SDS011;6378;42.684;23.372;2023-05-24T04:27:11;11.30;;;7.80;;
12625;SDS011;6378;42.684;23.372;2023-05-24T04:29:40;13.57;;;7.82;;
12625;SDS011;6378;42.684;23.372;2023-05-24T04:32:06;13.90;;;8.07;;
12625;SDS011;6378;42.684;23.372;2023-05-24T04:34:34;13.32;;;8.43;;
12625;SDS011;6378;42.684;23.372;2023-05-24T04:37:00;8.82;;;7.63;;
12625;SDS011;6378;42.684;23.372;2023-05-24T04:39:26;12.13;;;8.35;;
12625;SDS011;6378;42.684;23.372;2023-05-24T04:41:54;13.02;;;8.82;;
12625;SDS011;6378;42.684;23.372;2023-05-24T04:44:22;11.30;;;8.38;;
12625;SDS011;6378;42.684;23.372;2023-05-24T04:46:48;10.82;;;8.60;;
12625;SDS011;6378;42.684;23.372;2023-05-24T04:49:13;14.32;;;9.20;;
12625;SDS011;6378;42.684;23.372;2023-05-24T04:51:39;13.95;;;9.45;;
12625;SDS011;6378;42.684;23.372;2023-05-24T04:54:04;17.20;;;13.07;;
12625;SDS011;6378;42.684;23.372;2023-05-24T04:56:33;16.95;;;13.68;;
12625;SDS011;6378;42.684;23.372;2023-05-24T04:59:00;24.85;;;21.98;;
12625;SDS011;6378;42.684;23.372;2023-05-24T05:01:26;14.20;;;12.80;;
12625;SDS011;6378;42.684;23.372;2023-05-24T05:03:51;19.70;;;16.30;;
12625;SDS011;6378;42.684;23.372;2023-05-24T05:06:17;11.98;;;10.38;;
12625;SDS011;6378;42.684;23.372;2023-05-24T05:08:42;9.65;;;8.52;;
12625;SDS011;6378;42.684;23.372;2023-05-24T05:11:08;9.88;;;8.85;;
12625;SDS011;6378;42.684;23.372;2023-05-24T05:13:33;11.05;;;9.82;;
12625;SDS011;6378;42.684;23.372;2023-05-24T05:15:59;9.82;;;8.70;;
12625;SDS011;6378;42.684;23.372;2023-05-24T05:18:25;12.25;;;10.18;;
12625;SDS011;6378;42.684;23.372;2023-05-24T05:20:51;15.32;;;11.60;;
12625;SDS011;6378;42.684;23.372;2023-05-24T05:23:16;16.08;;;11.68;;
12625;SDS011;6378;42.684;23.372;2023-05-24T05:25:42;11.02;;;8.93;;
12625;SDS011;6378;42.684;23.372;2023-05-24T05:28:07;13.95;;;11.77;;
12625;SDS011;6378;42.684;23.372;2023-05-24T05:30:32;17.42;;;13.98;;
12625;SDS011;6378;42.684;23.372;2023-05-24T05:32:58;14.63;;;10.40;;
12625;SDS011;6378;42.684;23.372;2023-05-24T05:35:24;18.10;;;14.85;;
12625;SDS011;6378;42.684;23.372;2023-05-24T05:37:49;11.38;;;9.15;;
12625;SDS011;6378;42.684;23.372;2023-05-24T05:40:14;10.90;;;8.60;;
12625;SDS011;6378;42.684;23.372;2023-05-24T05:42:40;10.60;;;9.25;;
12625;SDS011;6378;42.684;23.372;2023-05-24T05:45:05;14.20;;;9.57;;
12625;SDS011;6378;42.684;23.372;2023-05-24T05:47:31;13.70;;;9.93;;
12625;SDS011;6378;42.684;23.372;2023-05-24T05:49:57;12.23;;;9.93;;
12625;SDS011;6378;42.684;23.372;2023-05-24T05:52:22;12.32;;;9.13;;
12625;SDS011;6378;42.684;23.372;2023-05-24T05:54:48;12.30;;;9.82;;
12625;SDS011;6378;42.684;23.372;2023-05-24T05:57:13;13.25;;;10.55;;
12625;SDS011;6378;42.684;23.372;2023-05-24T05:59:40;12.40;;;10.10;;
12625;SDS011;6378;42.684;23.372;2023-05-24T06:02:05;12.60;;;9.63;;
12625;SDS011;6378;42.684;23.372;2023-05-24T06:04:31;11.32;;;9.70;;
12625;SDS011;6378;42.684;23.372;2023-05-24T06:06:56;11.98;;;9.80;;
12625;SDS011;6378;42.684;23.372;2023-05-24T06:09:22;10.20;;;8.85;;
12625;SDS011;6378;42.684;23.372;2023-05-24T06:11:47;11.15;;;9.70;;
12625;SDS011;6378;42.684;23.372;2023-05-24T06:14:13;14.35;;;9.55;;
12625;SDS011;6378;42.684;23.372;2023-05-24T06:16:43;15.80;;;10.18;;
12625;SDS011;6378;42.684;23.372;2023-05-24T06:19:10;16.10;;;10.98;;
12625;SDS011;6378;42.684;23.372;2023-05-24T06:21:36;11.52;;;9.73;;
12625;SDS011;6378;42.684;23.372;2023-05-24T06:24:02;12.70;;;9.57;;
12625;SDS011;6378;42.684;23.372;2023-05-24T06:26:28;13.57;;;10.23;;
12625;SDS011;6378;42.684;23.372;2023-05-24T06:28:53;16.15;;;10.77;;
12625;SDS011;6378;42.684;23.372;2023-05-24T06:31:19;14.70;;;10.38;;
12625;SDS011;6378;42.684;23.372;2023-05-24T06:33:45;13.63;;;10.60;;
12625;SDS011;6378;42.684;23.372;2023-05-24T06:36:10;14.52;;;10.85;;
12625;SDS011;6378;42.684;23.372;2023-05-24T06:38:36;12.38;;;10.55;;
12625;SDS011;6378;42.684;23.372;2023-05-24T06:41:01;18.23;;;10.80;;
12625;SDS011;6378;42.684;23.372;2023-05-24T06:43:26;22.98;;;12.32;;
12625;SDS011;6378;42.684;23.372;2023-05-24T06:45:52;11.50;;;10.02;;
12625;SDS011;6378;42.684;23.372;2023-05-24T06:48:18;16.98;;;10.80;;
12625;SDS011;6378;42.684;23.372;2023-05-24T06:50:43;14.90;;;10.65;;
12625;SDS011;6378;42.684;23.372;2023-05-24T06:53:09;15.45;;;10.70;;
12625;SDS011;6378;42.684;23.372;2023-05-24T06:55:35;12.60;;;11.15;;
12625;SDS011;6378;42.684;23.372;2023-05-24T06:58:00;15.95;;;11.35;;
12625;SDS011;6378;42.684;23.372;2023-05-24T07:00:26;13.02;;;11.63;;
12625;SDS011;6378;42.684;23.372;2023-05-24T07:02:51;14.52;;;11.73;;
12625;SDS011;6378;42.684;23.372;2023-05-24T07:05:18;17.65;;;11.68;;
12625;SDS011;6378;42.684;23.372;2023-05-24T07:07:44;14.43;;;10.75;;
12625;SDS011;6378;42.684;23.372;2023-05-24T07:10:10;12.93;;;11.00;;
12625;SDS011;6378;42.684;23.372;2023-05-24T07:12:36;16.60;;;11.45;;
12625;SDS011;6378;42.684;23.372;2023-05-24T07:15:03;14.18;;;10.15;;
12625;SDS011;6378;42.684;23.372;2023-05-24T07:17:29;14.07;;;10.32;;
12625;SDS011;6378;42.684;23.372;2023-05-24T07:19:55;17.98;;;11.27;;
12625;SDS011;6378;42.684;23.372;2023-05-24T07:22:20;12.90;;;10.57;;
12625;SDS011;6378;42.684;23.372;2023-05-24T07:24:48;12.25;;;10.00;;
12625;SDS011;6378;42.684;23.372;2023-05-24T07:27:13;11.63;;;9.65;;
12625;SDS011;6378;42.684;23.372;2023-05-24T07:29:39;13.25;;;10.35;;
12625;SDS011;6378;42.684;23.372;2023-05-24T07:32:05;12.20;;;10.77;;
12625;SDS011;6378;42.684;23.372;2023-05-24T07:34:30;15.73;;;9.90;;
12625;SDS011;6378;42.684;23.372;2023-05-24T07:36:56;11.57;;;9.10;;
12625;SDS011;6378;42.684;23.372;2023-05-24T07:39:24;14.52;;;10.05;;
12625;SDS011;6378;42.684;23.372;2023-05-24T07:41:51;13.32;;;9.88;;
12625;SDS011;6378;42.684;23.372;2023-05-24T07:44:17;16.17;;;10.93;;
12625;SDS011;6378;42.684;23.372;2023-05-24T07:46:43;12.18;;;10.18;;
12625;SDS011;6378;42.684;23.372;2023-05-24T07:49:08;13.18;;;10.15;;
12625;SDS011;6378;42.684;23.372;2023-05-24T07:51:34;10.82;;;9.00;;
12625;SDS011;6378;42.684;23.372;2023-05-24T07:53:59;11.57;;;9.13;;
12625;SDS011;6378;42.684;23.372;2023-05-24T07:56:25;11.60;;;9.50;;
12625;SDS011;6378;42.684;23.372;2023-05-24T07:58:50;13.25;;;9.23;;
12625;SDS011;6378;42.684;23.372;2023-05-24T08:01:16;13.85;;;8.57;;
12625;SDS011;6378;42.684;23.372;2023-05-24T08:03:42;11.45;;;8.48;;
12625;SDS011;6378;42.684;23.372;2023-05-24T08:06:08;14.90;;;8.45;;
12625;SDS011;6378;42.684;23.372;2023-05-24T08:08:34;13.65;;;9.32;;
12625;SDS011;6378;42.684;23.372;2023-05-24T08:11:00;12.00;;;7.60;;
12625;SDS011;6378;42.684;23.372;2023-05-24T08:13:26;16.05;;;8.80;;
12625;SDS011;6378;42.684;23.372;2023-05-24T08:15:51;10.90;;;7.43;;
12625;SDS011;6378;42.684;23.372;2023-05-24T08:18:16;11.45;;;8.40;;
12625;SDS011;6378;42.684;23.372;2023-05-24T08:20:42;18.38;;;9.88;;
12625;SDS011;6378;42.684;23.372;2023-05-24T08:23:07;12.27;;;7.93;;
12625;SDS011;6378;42.684;23.372;2023-05-24T08:25:32;12.32;;;6.90;;
12625;SDS011;6378;42.684;23.372;2023-05-24T08:27:58;7.95;;;6.38;;
12625;SDS011;6378;42.684;23.372;2023-05-24T08:30:23;8.30;;;5.90;;
12625;SDS011;6378;42.684;23.372;2023-05-24T08:32:49;7.53;;;5.75;;
12625;SDS011;6378;42.684;23.372;2023-05-24T08:35:16;9.07;;;5.38;;
12625;SDS011;6378;42.684;23.372;2023-05-24T08:37:41;7.72;;;5.00;;
12625;SDS011;6378;42.684;23.372;2023-05-24T08:40:07;4.53;;;4.00;;
12625;SDS011;6378;42.684;23.372;2023-05-24T08:42:33;7.55;;;4.75;;
12625;SDS011;6378;42.684;23.372;2023-05-24T08:45:03;5.78;;;5.10;;
12625;SDS011;6378;42.684;23.372;2023-05-24T08:47:33;8.60;;;5.10;;
12625;SDS011;6378;42.684;23.372;2023-05-24T08:50:01;7.22;;;5.60;;
12625;SDS011;6378;42.684;23.372;2023-05-24T08:52:27;8.07;;;5.13;;
12625;SDS011;6378;42.684;23.372;2023-05-24T08:54:55;6.07;;;5.30;;
12625;SDS011;6378;42.684;23.372;2023-05-24T08:57:23;10.95;;;8.93;;
12625;SDS011;6378;42.684;23.372;2023-05-24T08:59:51;7.45;;;5.35;;
12625;SDS011;6378;42.684;23.372;2023-05-24T09:02:19;7.22;;;5.30;;
12625;SDS011;6378;42.684;23.372;2023-05-24T09:04:45;7.28;;;5.20;;
12625;SDS011;6378;42.684;23.372;2023-05-24T09:07:13;5.22;;;4.68;;
12625;SDS011;6378;42.684;23.372;2023-05-24T09:09:41;8.23;;;5.10;;
12625;SDS011;6378;42.684;23.372;2023-05-24T09:12:13;6.72;;;4.80;;
12625;SDS011;6378;42.684;23.372;2023-05-24T09:14:42;5.80;;;4.32;;
12625;SDS011;6378;42.684;23.372;2023-05-24T09:17:10;6.32;;;4.78;;
12625;SDS011;6378;42.684;23.372;2023-05-24T09:19:37;8.40;;;4.82;;
12625;SDS011;6378;42.684;23.372;2023-05-24T09:22:04;5.47;;;4.28;;
12625;SDS011;6378;42.684;23.372;2023-05-24T09:24:31;4.88;;;4.25;;
12625;SDS011;6378;42.684;23.372;2023-05-24T09:27:05;5.03;;;3.97;;
12625;SDS011;6378;42.684;23.372;2023-05-24T09:29:34;5.95;;;4.10;;
12625;SDS011;6378;42.684;23.372;2023-05-24T09:32:00;4.28;;;3.88;;
12625;SDS011;6378;42.684;23.372;2023-05-24T09:34:26;6.25;;;4.40;;
12625;SDS011;6378;42.684;23.372;2023-05-24T09:36:51;6.30;;;4.13;;
12625;SDS011;6378;42.684;23.372;2023-05-24T09:39:17;4.47;;;3.65;;
12625;SDS011;6378;42.684;23.372;2023-05-24T09:41:45;10.43;;;7.28;;
12625;SDS011;6378;42.684;23.372;2023-05-24T09:44:23;8.23;;;5.50;;
12625;SDS011;6378;42.684;23.372;2023-05-24T09:46:52;7.18;;;5.30;;
12625;SDS011;6378;42.684;23.372;2023-05-24T09:49:21;6.78;;;4.28;;
12625;SDS011;6378;42.684;23.372;2023-05-24T09:51:47;5.15;;;4.60;;
12625;SDS011;6378;42.684;23.372;2023-05-24T09:54:12;4.90;;;4.22;;
12625;SDS011;6378;42.684;23.372;2023-05-24T09:56:39;5.13;;;4.35;;
12625;SDS011;6378;42.684;23.372;2023-05-24T09:59:06;5.60;;;4.40;;
12625;SDS011;6378;42.684;23.372;2023-05-24T10:01:32;4.97;;;4.40;;
12625;SDS011;6378;42.684;23.372;2023-05-24T10:03:58;6.45;;;4.15;;
12625;SDS011;6378;42.684;23.372;2023-05-24T10:06:26;7.65;;;4.28;;
12625;SDS011;6378;42.684;23.372;2023-05-24T10:08:53;5.07;;;4.25;;
12625;SDS011;6378;42.684;23.372;2023-05-24T10:11:20;5.05;;;4.35;;
12625;SDS011;6378;42.684;23.372;2023-05-24T10:13:46;5.55;;;4.40;;
12625;SDS011;6378;42.684;23.372;2023-05-24T10:16:13;4.68;;;4.20;;
12625;SDS011;6378;42.684;23.372;2023-05-24T10:18:39;7.00;;;4.05;;
12625;SDS011;6378;42.684;23.372;2023-05-24T10:21:05;4.97;;;4.35;;
12625;SDS011;6378;42.684;23.372;2023-05-24T10:23:35;5.22;;;4.18;;
12625;SDS011;6378;42.684;23.372;2023-05-24T10:26:03;4.70;;;4.30;;
12625;SDS011;6378;42.684;23.372;2023-05-24T10:28:31;4.20;;;3.80;;
12625;SDS011;6378;42.684;23.372;2023-05-24T10:31:30;4.38;;;3.97;;
12625;SDS011;6378;42.684;23.372;2023-05-24T10:33:57;5.93;;;4.25;;
12625;SDS011;6378;42.684;23.372;2023-05-24T10:36:24;5.22;;;4.75;;
12625;SDS011;6378;42.684;23.372;2023-05-24T10:38:50;4.35;;;4.00;;
12625;SDS011;6378;42.684;23.372;2023-05-24T10:41:16;6.50;;;4.43;;
12625;SDS011;6378;42.684;23.372;2023-05-24T10:43:44;4.20;;;3.80;;
12625;SDS011;6378;42.684;23.372;2023-05-24T10:46:10;8.07;;;4.35;;
12625;SDS011;6378;42.684;23.372;2023-05-24T10:48:39;4.30;;;3.90;;
12625;SDS011;6378;42.684;23.372;2023-05-24T10:54:14;4.78;;;3.65;;
12625;SDS011;6378;42.684;23.372;2023-05-24T10:56:45;4.30;;;3.90;;
12625;SDS011;6378;42.684;23.372;2023-05-24T11:01:52;6.07;;;3.78;;
12625;SDS011;6378;42.684;23.372;2023-05-24T11:04:19;4.22;;;3.85;;
12625;SDS011;6378;42.684;23.372;2023-05-24T11:09:20;7.72;;;6.18;;
12625;SDS011;6378;42.684;23.372;2023-05-24T11:11:46;77.68;;;69.32;;
12625;SDS011;6378;42.684;23.372;2023-05-24T11:14:17;137.80;;;122.75;;
12625;SDS011;6378;42.684;23.372;2023-05-24T11:16:44;196.05;;;175.90;;
12625;SDS011;6378;42.684;23.372;2023-05-24T11:21:43;12.90;;;10.65;;
12625;SDS011;6378;42.684;23.372;2023-05-24T11:24:10;5.80;;;5.20;;
12625;SDS011;6378;42.684;23.372;2023-05-24T11:26:36;6.95;;;5.50;;
12625;SDS011;6378;42.684;23.372;2023-05-24T11:29:01;5.88;;;5.00;;
12625;SDS011;6378;42.684;23.372;2023-05-24T11:31:27;7.22;;;4.57;;
12625;SDS011;6378;42.684;23.372;2023-05-24T11:33:53;6.43;;;3.85;;
12625;SDS011;6378;42.684;23.372;2023-05-24T11:36:19;9.48;;;4.18;;
12625;SDS011;6378;42.684;23.372;2023-05-24T11:38:47;4.70;;;4.25;;
12625;SDS011;6378;42.684;23.372;2023-05-24T11:41:13;4.18;;;3.70;;
12625;SDS011;6378;42.684;23.372;2023-05-24T11:43:39;4.78;;;4.38;;
12625;SDS011;6378;42.684;23.372;2023-05-24T11:46:06;5.00;;;4.50;;
12625;SDS011;6378;42.684;23.372;2023-05-24T11:48:31;8.55;;;4.55;;
12625;SDS011;6378;42.684;23.372;2023-05-24T11:50:57;7.57;;;4.47;;
12625;SDS011;6378;42.684;23.372;2023-05-24T11:53:24;4.50;;;4.03;;
12625;SDS011;6378;42.684;23.372;2023-05-24T11:55:50;5.50;;;4.45;;
12625;SDS011;6378;42.684;23.372;2023-05-24T12:00:47;4.93;;;3.85;;
12625;SDS011;6378;42.684;23.372;2023-05-24T12:03:13;4.70;;;4.30;;
12625;SDS011;6378;42.684;23.372;2023-05-24T12:05:38;4.32;;;3.95;;
12625;SDS011;6378;42.684;23.372;2023-05-24T12:08:08;4.30;;;3.90;;
12625;SDS011;6378;42.684;23.372;2023-05-24T12:10:37;6.07;;;4.35;;
12625;SDS011;6378;42.684;23.372;2023-05-24T12:13:04;4.35;;;3.95;;
12625;SDS011;6378;42.684;23.372;2023-05-24T12:15:31;5.95;;;4.20;;
12625;SDS011;6378;42.684;23.372;2023-05-24T12:17:57;5.85;;;4.00;;
12625;SDS011;6378;42.684;23.372;2023-05-24T12:20:23;4.45;;;4.05;;
12625;SDS011;6378;42.684;23.372;2023-05-24T12:22:52;4.40;;;4.00;;
12625;SDS011;6378;42.684;23.372;2023-05-24T12:25:18;4.93;;;4.18;;
12625;SDS011;6378;42.684;23.372;2023-05-24T12:27:45;4.53;;;4.13;;
12625;SDS011;6378;42.684;23.372;2023-05-24T12:30:12;6.15;;;4.03;;
12625;SDS011;6378;42.684;23.372;2023-05-24T12:32:48;5.72;;;4.10;;
12625;SDS011;6378;42.684;23.372;2023-05-24T12:35:15;5.13;;;4.30;;
12625;SDS011;6378;42.684;23.372;2023-05-24T12:37:42;4.50;;;3.95;;
12625;SDS011;6378;42.684;23.372;2023-05-24T12:40:15;8.48;;;4.90;;
12625;SDS011;6378;42.684;23.372;2023-05-24T12:42:44;10.52;;;5.43;;
12625;SDS011;6378;42.684;23.372;2023-05-24T12:45:10;5.45;;;4.55;;
12625;SDS011;6378;42.684;23.372;2023-05-24T12:47:36;5.72;;;4.93;;
12625;SDS011;6378;42.684;23.372;2023-05-24T12:50:02;4.90;;;4.40;;
12625;SDS011;6378;42.684;23.372;2023-05-24T12:52:27;4.68;;;4.10;;
12625;SDS011;6378;42.684;23.372;2023-05-24T12:54:53;4.72;;;4.32;;
12625;SDS011;6378;42.684;23.372;2023-05-24T12:57:18;5.03;;;3.92;;
12625;SDS011;6378;42.684;23.372;2023-05-24T12:59:44;5.25;;;4.47;;
12625;SDS011;6378;42.684;23.372;2023-05-24T13:02:10;6.05;;;4.70;;
12625;SDS011;6378;42.684;23.372;2023-05-24T13:04:35;5.45;;;4.25;;
12625;SDS011;6378;42.684;23.372;2023-05-24T13:07:01;5.45;;;3.95;;
12625;SDS011;6378;42.684;23.372;2023-05-24T13:09:27;5.20;;;4.00;;
12625;SDS011;6378;42.684;23.372;2023-05-24T13:11:54;4.47;;;4.00;;
12625;SDS011;6378;42.684;23.372;2023-05-24T13:14:19;4.93;;;4.38;;
12625;SDS011;6378;42.684;23.372;2023-05-24T13:16:45;5.85;;;4.15;;
12625;SDS011;6378;42.684;23.372;2023-05-24T13:19:11;6.30;;;4.28;;
12625;SDS011;6378;42.684;23.372;2023-05-24T13:21:36;8.15;;;4.63;;
12625;SDS011;6378;42.684;23.372;2023-05-24T13:24:02;6.30;;;4.25;;
12625;SDS011;6378;42.684;23.372;2023-05-24T13:26:28;4.38;;;3.97;;
12625;SDS011;6378;42.684;23.372;2023-05-24T13:28:54;5.32;;;4.53;;
12625;SDS011;6378;42.684;23.372;2023-05-24T13:31:20;4.57;;;3.75;;
12625;SDS011;6378;42.684;23.372;2023-05-24T13:33:46;6.18;;;4.60;;
12625;SDS011;6378;42.684;23.372;2023-05-24T13:36:12;5.90;;;4.15;;
12625;SDS011;6378;42.684;23.372;2023-05-24T13:38:38;5.30;;;4.57;;
12625;SDS011;6378;42.684;23.372;2023-05-24T13:41:03;5.22;;;4.72;;
12625;SDS011;6378;42.684;23.372;2023-05-24T13:43:29;5.93;;;4.53;;
12625;SDS011;6378;42.684;23.372;2023-05-24T13:45:54;8.38;;;4.60;;
12625;SDS011;6378;42.684;23.372;2023-05-24T13:48:21;5.93;;;4.95;;
12625;SDS011;6378;42.684;23.372;2023-05-24T13:50:46;7.45;;;5.20;;
12625;SDS011;6378;42.684;23.372;2023-05-24T13:53:12;9.88;;;5.25;;
12625;SDS011;6378;42.684;23.372;2023-05-24T13:55:37;9.25;;;5.43;;
12625;SDS011;6378;42.684;23.372;2023-05-24T13:58:03;5.68;;;5.10;;
12625;SDS011;6378;42.684;23.372;2023-05-24T14:00:29;6.45;;;5.38;;
12625;SDS011;6378;42.684;23.372;2023-05-24T14:02:55;5.72;;;4.68;;
12625;SDS011;6378;42.684;23.372;2023-05-24T14:05:22;10.60;;;6.88;;
12625;SDS011;6378;42.684;23.372;2023-05-24T14:07:48;7.47;;;5.00;;
12625;SDS011;6378;42.684;23.372;2023-05-24T14:10:13;7.25;;;4.63;;
12625;SDS011;6378;42.684;23.372;2023-05-24T14:12:39;6.97;;;4.70;;
12625;SDS011;6378;42.684;23.372;2023-05-24T14:15:04;5.65;;;5.07;;
12625;SDS011;6378;42.684;23.372;2023-05-24T14:17:30;10.55;;;6.45;;
12625;SDS011;6378;42.684;23.372;2023-05-24T14:19:56;6.72;;;5.05;;
12625;SDS011;6378;42.684;23.372;2023-05-24T14:22:21;11.23;;;7.38;;
12625;SDS011;6378;42.684;23.372;2023-05-24T14:24:48;8.88;;;6.88;;
12625;SDS011;6378;42.684;23.372;2023-05-24T14:27:14;6.93;;;4.90;;
12625;SDS011;6378;42.684;23.372;2023-05-24T14:29:40;23.45;;;14.57;;
12625;SDS011;6378;42.684;23.372;2023-05-24T14:32:05;13.05;;;7.57;;
12625;SDS011;6378;42.684;23.372;2023-05-24T14:34:30;5.60;;;4.78;;
12625;SDS011;6378;42.684;23.372;2023-05-24T14:36:56;8.60;;;6.10;;
12625;SDS011;6378;42.684;23.372;2023-05-24T14:39:21;10.23;;;6.40;;
12625;SDS011;6378;42.684;23.372;2023-05-24T14:41:46;11.13;;;6.30;;
12625;SDS011;6378;42.684;23.372;2023-05-24T14:44:12;7.85;;;5.28;;
12625;SDS011;6378;42.684;23.372;2023-05-24T14:46:38;8.20;;;6.22;;
12625;SDS011;6378;42.684;23.372;2023-05-24T14:49:04;9.00;;;6.63;;
12625;SDS011;6378;42.684;23.372;2023-05-24T14:51:30;6.85;;;6.13;;
12625;SDS011;6378;42.684;23.372;2023-05-24T14:53:55;10.40;;;6.22;;
12625;SDS011;6378;42.684;23.372;2023-05-24T14:56:21;7.53;;;5.45;;
12625;SDS011;6378;42.684;23.372;2023-05-24T14:58:46;9.32;;;6.20;;
12625;SDS011;6378;42.684;23.372;2023-05-24T15:01:12;6.78;;;5.10;;
12625;SDS011;6378;42.684;23.372;2023-05-24T15:03:38;6.93;;;5.38;;
12625;SDS011;6378;42.684;23.372;2023-05-24T15:06:03;8.02;;;5.70;;